createdAt,value
2019-05-19T00:01:00.683Z,76.32
2019-05-19T00:03:29.114Z,76.83
2019-05-19T00:05:57.568Z,77.15
2019-05-19T00:08:26.044Z,77.03
2019-05-19T00:10:54.478Z,75.98
2019-05-19T00:13:22.922Z,76.80
2019-05-19T00:15:51.358Z,76.64
2019-05-19T00:18:19.783Z,76.90
2019-05-19T00:20:48.243Z,77.11
2019-05-19T00:23:16.841Z,76.67
2019-05-19T00:25:45.338Z,77.43
2019-05-19T00:28:13.777Z,77.49
2019-05-19T00:30:42.227Z,78.20
2019-05-19T00:33:10.665Z,78.74
2019-05-19T00:35:39.113Z,78.74
2019-05-19T00:38:07.571Z,79.10
2019-05-19T00:40:36.025Z,78.72
2019-05-19T00:43:04.473Z,78.97
2019-05-19T00:45:33.020Z,79.00
2019-05-19T00:48:01.465Z,79.32
2019-05-19T00:50:29.891Z,79.31
2019-05-19T00:52:59.102Z,79.29
2019-05-19T00:55:27.533Z,79.25
2019-05-19T00:57:56.909Z,79.21
2019-05-19T01:00:25.351Z,79.09
2019-05-19T01:02:53.791Z,78.78
2019-05-19T01:05:22.239Z,78.72
2019-05-19T01:07:50.689Z,78.24
2019-05-19T01:10:19.199Z,77.91
2019-05-19T01:12:47.721Z,78.38
2019-05-19T01:15:17.761Z,77.84
2019-05-19T01:17:46.197Z,77.62
2019-05-19T01:20:15.981Z,77.73
2019-05-19T01:22:44.461Z,77.78
2019-05-19T01:25:13.986Z,77.66
2019-05-19T01:27:42.420Z,77.72
2019-05-19T01:30:11.495Z,77.54
2019-05-19T01:32:39.927Z,77.58
2019-05-19T01:35:08.994Z,77.47
2019-05-19T01:37:37.429Z,77.18
2019-05-19T01:40:09.281Z,77.19
2019-05-19T01:42:37.801Z,77.11
2019-05-19T01:45:07.259Z,77.02
2019-05-19T01:47:35.783Z,76.83
2019-05-19T01:50:17.682Z,76.73
2019-05-19T01:52:36.263Z,76.57
2019-05-19T01:55:05.563Z,76.75
2019-05-19T01:57:33.992Z,76.75
2019-05-19T02:00:03.528Z,76.69
2019-05-19T02:02:32.419Z,76.48
2019-05-19T02:05:00.845Z,76.47
2019-05-19T02:07:29.294Z,76.44
2019-05-19T02:09:57.740Z,76.29
2019-05-19T02:12:26.160Z,76.22
2019-05-19T02:14:54.625Z,75.93
2019-05-19T02:17:23.055Z,76.07
2019-05-19T02:19:51.483Z,75.97
2019-05-19T02:22:19.943Z,75.88
2019-05-19T02:24:48.375Z,75.88
2019-05-19T02:27:16.813Z,76.05
2019-05-19T02:29:45.247Z,76.09
2019-05-19T02:32:13.714Z,76.07
2019-05-19T02:34:42.176Z,75.87
2019-05-19T02:37:10.638Z,75.88
2019-05-19T02:39:39.073Z,75.76
2019-05-19T02:42:09.647Z,75.75
2019-05-19T02:44:39.816Z,75.80
2019-05-19T02:47:09.897Z,75.80
2019-05-19T02:49:39.690Z,75.93
2019-05-19T02:52:10.317Z,75.83
2019-05-19T02:54:39.051Z,75.96
2019-05-19T02:57:08.140Z,76.10
2019-05-19T02:59:37.036Z,76.23
2019-05-19T03:02:07.095Z,76.13
2019-05-19T03:04:35.541Z,76.08
2019-05-19T03:07:04.042Z,76.06
2019-05-19T03:09:32.488Z,75.99
2019-05-19T03:12:00.914Z,75.88
2019-05-19T03:14:29.349Z,75.68
2019-05-19T03:16:57.769Z,75.54
2019-05-19T03:19:26.213Z,75.62
2019-05-19T03:21:54.804Z,75.58
2019-05-19T03:24:23.238Z,75.63
2019-05-19T03:26:51.664Z,75.36
2019-05-19T03:29:21.780Z,75.36
2019-05-19T03:31:58.060Z,75.20
2019-05-19T03:34:27.278Z,75.28
2019-05-19T03:36:55.705Z,75.44
2019-05-19T03:39:24.132Z,75.69
2019-05-19T03:41:52.624Z,75.52
2019-05-19T03:44:21.061Z,75.56
2019-05-19T03:46:49.487Z,75.50
2019-05-19T03:49:17.960Z,75.42
2019-05-19T03:51:46.433Z,75.27
2019-05-19T03:54:14.883Z,75.54
2019-05-19T03:56:43.375Z,75.58
2019-05-19T03:59:11.839Z,75.57
2019-05-19T04:01:40.295Z,75.77
2019-05-19T04:04:08.717Z,75.71
2019-05-19T04:06:37.163Z,75.57
2019-05-19T04:09:07.023Z,75.66
2019-05-19T04:11:35.803Z,75.62
2019-05-19T04:14:04.315Z,75.49
2019-05-19T04:16:32.753Z,75.32
2019-05-19T04:19:01.220Z,75.28
2019-05-19T04:21:38.744Z,75.45
2019-05-19T04:23:59.863Z,75.45
2019-05-19T04:26:28.300Z,75.35
2019-05-19T04:28:56.731Z,75.54
2019-05-19T04:31:25.170Z,75.69
2019-05-19T04:33:53.607Z,75.65
2019-05-19T04:36:22.128Z,75.26
2019-05-19T04:38:50.597Z,75.28
2019-05-19T04:41:19.027Z,75.19
2019-05-19T04:43:47.660Z,75.28
2019-05-19T04:46:16.442Z,75.28
2019-05-19T04:48:44.888Z,75.34
2019-05-19T04:51:13.344Z,75.44
2019-05-19T04:53:41.770Z,75.03
2019-05-19T04:56:10.234Z,75.07
2019-05-19T04:58:38.663Z,75.22
2019-05-19T05:01:07.080Z,75.27
2019-05-19T05:03:35.517Z,75.32
2019-05-19T05:06:04.069Z,75.03
2019-05-19T05:08:32.498Z,75.37
2019-05-19T05:11:00.938Z,75.14
2019-05-19T05:13:29.373Z,75.05
2019-05-19T05:15:57.840Z,75.02
2019-05-19T05:18:26.312Z,74.68
2019-05-19T05:20:54.714Z,74.72
2019-05-19T05:23:23.141Z,74.33
2019-05-19T05:25:51.573Z,74.47
2019-05-19T05:28:20.007Z,74.42
2019-05-19T05:30:48.444Z,74.33
2019-05-19T05:33:18.080Z,74.26
2019-05-19T05:35:46.515Z,74.29
2019-05-19T05:38:14.956Z,74.29
2019-05-19T05:40:43.404Z,73.93
2019-05-19T05:43:11.859Z,74.04
2019-05-19T05:45:40.281Z,74.07
2019-05-19T05:48:08.746Z,73.30
2019-05-19T05:50:37.201Z,73.40
2019-05-19T05:53:05.658Z,72.92
2019-05-19T05:55:34.082Z,73.17
2019-05-19T05:58:02.533Z,72.90
2019-05-19T06:00:31.003Z,72.89
2019-05-19T06:02:59.710Z,72.57
2019-05-19T06:05:28.128Z,72.51
2019-05-19T06:07:56.578Z,72.34
2019-05-19T06:10:25.002Z,72.17
2019-05-19T06:12:53.436Z,72.31
2019-05-19T06:15:21.904Z,72.16
2019-05-19T06:17:50.320Z,71.96
2019-05-19T06:20:18.763Z,72.19
2019-05-19T06:22:56.504Z,71.80
2019-05-19T06:25:16.615Z,71.82
2019-05-19T06:27:45.065Z,70.17
2019-05-19T06:30:14.374Z,70.32
2019-05-19T06:32:50.169Z,70.37
2019-05-19T06:35:18.742Z,69.73
2019-05-19T06:37:47.195Z,69.44
2019-05-19T06:40:16.439Z,69.32
2019-05-19T06:42:44.865Z,69.46
2019-05-19T06:45:14.443Z,69.16
2019-05-19T06:47:42.867Z,69.57
2019-05-19T06:50:12.041Z,69.58
2019-05-19T06:52:40.502Z,69.60
2019-05-19T06:55:09.189Z,69.30
2019-05-19T06:57:37.640Z,69.42
2019-05-19T07:00:07.730Z,70.18
2019-05-19T07:02:36.226Z,69.00
2019-05-19T07:05:06.411Z,68.76
2019-05-19T07:07:34.886Z,68.99
2019-05-19T07:10:04.305Z,68.98
2019-05-19T07:12:32.744Z,67.67
2019-05-19T07:15:01.300Z,67.61
2019-05-19T07:17:29.736Z,68.63
2019-05-19T07:19:58.167Z,68.02
2019-05-19T07:22:26.621Z,68.13
2019-05-19T07:24:55.046Z,67.31
2019-05-19T07:27:23.499Z,66.66
2019-05-19T07:29:51.996Z,66.22
2019-05-19T07:32:20.754Z,66.52
2019-05-19T07:34:49.203Z,65.76
2019-05-19T07:37:17.633Z,65.76
2019-05-19T07:39:46.152Z,66.73
2019-05-19T07:42:14.608Z,67.16
2019-05-19T07:44:45.279Z,67.10
2019-05-19T07:47:13.449Z,67.30
2019-05-19T07:49:41.920Z,66.72
2019-05-19T07:52:10.351Z,66.39
2019-05-19T07:54:38.778Z,66.05
2019-05-19T07:57:07.279Z,65.47
2019-05-19T07:59:35.715Z,64.86
2019-05-19T08:02:04.229Z,63.87
2019-05-19T08:04:32.668Z,63.92
2019-05-19T08:07:01.108Z,63.80
2019-05-19T08:09:29.548Z,63.63
2019-05-19T08:11:58.018Z,63.52
2019-05-19T08:14:26.441Z,63.56
2019-05-19T08:16:54.878Z,63.65
2019-05-19T08:19:23.348Z,63.22
2019-05-19T08:21:51.769Z,63.54
2019-05-19T08:24:20.198Z,63.05
2019-05-19T08:26:48.636Z,62.27
2019-05-19T08:29:17.065Z,62.16
2019-05-19T08:31:45.514Z,62.81
2019-05-19T08:34:13.947Z,62.10
2019-05-19T08:36:42.411Z,63.04
2019-05-19T08:39:10.893Z,62.27
2019-05-19T08:41:39.361Z,61.39
2019-05-19T08:44:07.798Z,61.25
2019-05-19T08:46:36.234Z,61.87
2019-05-19T08:49:04.734Z,60.08
2019-05-19T08:51:33.165Z,59.50
2019-05-19T08:54:13.906Z,60.53
2019-05-19T08:56:31.741Z,60.03
2019-05-19T08:59:00.180Z,59.84
2019-05-19T09:01:28.611Z,59.34
2019-05-19T09:03:57.146Z,59.82
2019-05-19T09:06:25.584Z,59.37
2019-05-19T09:08:54.017Z,59.13
2019-05-19T09:11:22.441Z,58.69
2019-05-19T09:13:50.882Z,58.64
2019-05-19T09:16:19.337Z,58.40
2019-05-19T09:18:47.846Z,56.80
2019-05-19T09:21:17.511Z,56.45
2019-05-19T09:23:45.917Z,56.21
2019-05-19T09:26:14.387Z,55.74
2019-05-19T09:28:42.839Z,55.41
2019-05-19T09:31:11.272Z,55.32
2019-05-19T09:33:39.714Z,54.43
2019-05-19T09:36:08.145Z,52.42
2019-05-19T09:38:36.901Z,51.20
2019-05-19T09:41:05.509Z,50.86
2019-05-19T09:43:33.934Z,49.58
2019-05-19T09:46:02.375Z,50.57
2019-05-19T09:48:30.835Z,48.83
2019-05-19T09:50:59.278Z,47.15
2019-05-19T09:53:27.708Z,46.66
2019-05-19T09:55:56.132Z,46.87
2019-05-19T09:58:26.116Z,47.66
2019-05-19T10:00:53.812Z,46.67
2019-05-19T10:03:22.302Z,48.71
2019-05-19T10:05:50.701Z,45.51
2019-05-19T10:08:25.474Z,45.83
2019-05-19T10:11:16.556Z,43.86
2019-05-19T10:13:45.039Z,43.22
2019-05-19T10:16:13.463Z,43.72
2019-05-19T10:18:41.929Z,42.55
2019-05-19T10:21:10.392Z,41.84
2019-05-19T10:23:38.777Z,42.37
2019-05-19T10:26:07.246Z,40.67
2019-05-19T10:28:35.661Z,41.44
2019-05-19T10:31:04.097Z,43.13
2019-05-19T10:33:32.547Z,42.71
2019-05-19T10:36:01.011Z,42.32
2019-05-19T10:38:29.483Z,41.29
2019-05-19T10:40:57.905Z,41.31
2019-05-19T10:43:26.329Z,38.52
2019-05-19T10:46:00.614Z,39.17
2019-05-19T10:48:29.047Z,39.85
2019-05-19T10:50:57.477Z,39.07
2019-05-19T10:53:25.930Z,38.73
2019-05-19T10:55:54.405Z,37.03
2019-05-19T10:58:22.819Z,36.45
2019-05-19T11:00:51.252Z,37.42
2019-05-19T11:03:19.687Z,37.52
2019-05-19T11:05:48.110Z,36.24
2019-05-19T11:08:16.563Z,35.94
2019-05-19T11:10:44.974Z,35.94
2019-05-19T11:13:13.405Z,34.90
2019-05-19T11:15:41.838Z,35.89
2019-05-19T11:18:10.274Z,35.64
2019-05-19T11:20:38.718Z,35.50
2019-05-19T11:23:07.148Z,34.13
2019-05-19T11:25:49.261Z,34.21
2019-05-19T11:28:05.735Z,34.82
2019-05-19T11:30:34.158Z,33.62
2019-05-19T11:33:02.599Z,35.19
2019-05-19T11:35:31.072Z,35.19
2019-05-19T11:37:59.837Z,33.87
2019-05-19T11:40:28.253Z,33.55
2019-05-19T11:42:56.685Z,33.67
2019-05-19T11:45:25.141Z,33.48
2019-05-19T11:47:53.559Z,33.24
2019-05-19T11:50:21.978Z,31.09
2019-05-19T11:52:50.496Z,32.76
2019-05-19T11:55:18.917Z,32.10
2019-05-19T11:57:47.379Z,32.12
2019-05-19T12:00:16.238Z,31.50
2019-05-19T12:02:44.657Z,32.62
2019-05-19T12:05:13.647Z,32.26
2019-05-19T12:07:42.067Z,33.11
2019-05-19T12:10:10.844Z,32.89
2019-05-19T12:12:39.385Z,33.31
2019-05-19T12:15:09.051Z,32.53
2019-05-19T12:17:36.753Z,33.37
2019-05-19T12:20:06.654Z,32.21
2019-05-19T12:22:35.094Z,32.63
2019-05-19T12:25:03.997Z,32.63
2019-05-19T12:27:32.467Z,32.22
2019-05-19T12:30:00.849Z,33.07
2019-05-19T12:32:29.346Z,32.17
2019-05-19T12:34:57.784Z,31.65
2019-05-19T12:37:26.246Z,33.83
2019-05-19T12:39:54.673Z,33.83
2019-05-19T12:42:23.109Z,33.18
2019-05-19T12:44:51.550Z,33.92
2019-05-19T12:47:19.994Z,32.20
2019-05-19T12:49:48.433Z,32.90
2019-05-19T12:52:16.858Z,33.09
2019-05-19T12:54:45.337Z,33.82
2019-05-19T12:57:13.828Z,32.61
2019-05-19T12:59:42.266Z,33.42
2019-05-19T13:02:10.870Z,33.42
2019-05-19T13:04:39.373Z,34.47
2019-05-19T13:07:07.775Z,35.46
2019-05-19T13:09:36.200Z,34.92
2019-05-19T13:12:04.746Z,34.59
2019-05-19T13:14:33.180Z,34.59
2019-05-19T13:17:01.620Z,31.94
2019-05-19T13:19:30.062Z,33.81
2019-05-19T13:21:58.546Z,32.95
2019-05-19T13:24:27.032Z,32.75
2019-05-19T13:26:56.982Z,33.19
2019-05-19T13:29:25.600Z,31.91
2019-05-19T13:31:54.025Z,31.05
2019-05-19T13:34:22.461Z,31.76
2019-05-19T13:36:50.905Z,33.11
2019-05-19T13:39:19.815Z,32.81
2019-05-19T13:41:48.255Z,32.62
2019-05-19T13:44:16.686Z,34.52
2019-05-19T13:46:45.133Z,33.45
2019-05-19T13:49:13.556Z,33.45
2019-05-19T13:51:41.994Z,32.37
2019-05-19T13:54:10.430Z,32.99
2019-05-19T13:56:38.868Z,32.93
2019-05-19T13:59:07.296Z,32.93
2019-05-19T14:01:35.733Z,33.03
2019-05-19T14:04:04.156Z,34.22
2019-05-19T14:06:32.596Z,34.36
2019-05-19T14:09:01.059Z,33.71
2019-05-19T14:11:29.481Z,33.72
2019-05-19T14:13:57.914Z,33.22
2019-05-19T14:16:26.370Z,33.67
2019-05-19T14:18:54.846Z,33.80
2019-05-19T14:21:23.240Z,34.18
2019-05-19T14:23:52.012Z,35.45
2019-05-19T14:26:20.623Z,34.89
2019-05-19T14:28:49.019Z,34.57
2019-05-19T14:31:17.449Z,35.18
2019-05-19T14:33:45.907Z,35.25
2019-05-19T14:36:14.345Z,36.10
2019-05-19T14:38:44.456Z,35.96
2019-05-19T14:41:12.877Z,36.31
2019-05-19T14:43:41.309Z,36.97
2019-05-19T14:46:09.765Z,36.96
2019-05-19T14:48:38.170Z,36.45
2019-05-19T14:51:06.600Z,37.13
2019-05-19T14:53:35.041Z,37.89
2019-05-19T14:56:03.566Z,35.97
2019-05-19T14:58:31.996Z,37.09
2019-05-19T15:01:00.455Z,37.64
2019-05-19T15:03:28.882Z,35.87
2019-05-19T15:05:57.327Z,36.69
2019-05-19T15:08:25.750Z,37.10
2019-05-19T15:10:54.178Z,36.35
2019-05-19T15:13:22.605Z,37.56
2019-05-19T15:15:51.069Z,37.64
2019-05-19T15:18:19.500Z,37.02
2019-05-19T15:20:47.932Z,36.49
2019-05-19T15:23:16.368Z,36.54
2019-05-19T15:25:44.813Z,36.03
2019-05-19T15:28:13.273Z,36.32
2019-05-19T15:30:41.698Z,35.80
2019-05-19T15:33:10.164Z,34.73
2019-05-19T15:35:38.591Z,34.87
2019-05-19T15:38:07.123Z,36.57
2019-05-19T15:40:35.565Z,34.71
2019-05-19T15:43:03.984Z,34.83
2019-05-19T15:45:32.416Z,34.60
2019-05-19T15:48:00.837Z,35.75
2019-05-19T15:50:29.264Z,35.94
2019-05-19T15:52:57.764Z,37.07
2019-05-19T15:55:26.208Z,37.27
2019-05-19T15:57:54.648Z,38.24
2019-05-19T16:00:23.358Z,38.80
2019-05-19T16:02:51.782Z,39.10
2019-05-19T16:05:20.224Z,39.30
2019-05-19T16:07:48.657Z,40.13
2019-05-19T16:10:17.501Z,41.18
2019-05-19T16:12:46.016Z,41.32
2019-05-19T16:15:14.997Z,42.22
2019-05-19T16:17:43.471Z,42.39
2019-05-19T16:20:12.338Z,42.59
2019-05-19T16:22:40.911Z,42.37
2019-05-19T16:25:10.080Z,42.65
2019-05-19T16:27:38.707Z,42.72
2019-05-19T16:30:07.867Z,41.27
2019-05-19T16:32:36.352Z,41.75
2019-05-19T16:35:06.702Z,40.94
2019-05-19T16:37:35.136Z,40.65
2019-05-19T16:40:03.829Z,40.64
2019-05-19T16:42:32.295Z,40.87
2019-05-19T16:45:00.730Z,39.56
2019-05-19T16:47:29.161Z,39.73
2019-05-19T16:49:57.617Z,39.66
2019-05-19T16:52:26.077Z,38.71
2019-05-19T16:55:12.277Z,39.21
2019-05-19T16:57:40.689Z,39.36
2019-05-19T17:00:09.454Z,38.93
2019-05-19T17:02:37.879Z,38.20
2019-05-19T17:05:07.755Z,38.11
2019-05-19T17:07:36.273Z,37.25
2019-05-19T17:10:07.098Z,38.11
2019-05-19T17:12:35.536Z,38.08
2019-05-19T17:15:04.938Z,38.71
2019-05-19T17:17:33.366Z,39.26
2019-05-19T17:20:01.805Z,39.16
2019-05-19T17:22:30.229Z,40.12
2019-05-19T17:25:00.417Z,39.65
2019-05-19T17:27:28.976Z,39.44
2019-05-19T17:29:57.411Z,39.75
2019-05-19T17:32:25.842Z,40.09
2019-05-19T17:34:54.273Z,39.92
2019-05-19T17:37:22.745Z,40.42
2019-05-19T17:39:51.151Z,40.45
2019-05-19T17:42:19.591Z,40.77
2019-05-19T17:44:48.030Z,41.33
2019-05-19T17:47:16.905Z,40.91
2019-05-19T17:49:45.419Z,41.29
2019-05-19T17:52:13.923Z,41.97
2019-05-19T17:54:42.430Z,42.39
2019-05-19T17:57:11.449Z,42.56
2019-05-19T17:59:41.659Z,43.06
2019-05-19T18:02:10.096Z,43.90
2019-05-19T18:04:38.525Z,44.03
2019-05-19T18:07:06.964Z,44.71
2019-05-19T18:09:35.394Z,45.27
2019-05-19T18:12:03.823Z,45.27
2019-05-19T18:14:32.263Z,45.93
2019-05-19T18:17:00.696Z,46.28
2019-05-19T18:19:29.161Z,47.05
2019-05-19T18:21:57.591Z,47.62
2019-05-19T18:24:26.023Z,48.31
2019-05-19T18:26:54.458Z,49.03
2019-05-19T18:29:30.958Z,49.13
2019-05-19T18:31:52.330Z,50.10
2019-05-19T18:34:20.704Z,48.68
2019-05-19T18:36:49.179Z,51.15
2019-05-19T18:39:17.660Z,51.98
2019-05-19T18:41:46.094Z,53.08
2019-05-19T18:44:14.518Z,53.02
2019-05-19T18:46:43.157Z,53.83
2019-05-19T18:49:11.650Z,54.36
2019-05-19T18:51:40.098Z,55.06
2019-05-19T18:54:08.534Z,55.36
2019-05-19T18:56:37.080Z,56.14
2019-05-19T18:59:05.506Z,56.42
2019-05-19T19:01:34.023Z,57.03
2019-05-19T19:04:02.471Z,57.59
2019-05-19T19:06:32.650Z,58.00
2019-05-19T19:09:01.205Z,58.36
2019-05-19T19:11:29.761Z,58.47
2019-05-19T19:13:58.242Z,59.37
2019-05-19T19:16:29.694Z,59.52
2019-05-19T19:18:58.271Z,59.84
2019-05-19T19:21:26.730Z,60.29
2019-05-19T19:23:55.203Z,60.51
2019-05-19T19:26:23.678Z,60.94
2019-05-19T19:28:52.135Z,61.43
2019-05-19T19:31:21.698Z,61.66
2019-05-19T19:33:49.379Z,62.40
2019-05-19T19:36:18.513Z,60.28
2019-05-19T19:38:47.023Z,62.97
2019-05-19T19:41:15.477Z,63.52
2019-05-19T19:43:43.906Z,64.02
2019-05-19T19:46:12.386Z,64.43
2019-05-19T19:48:40.880Z,64.63
2019-05-19T19:51:09.336Z,65.22
2019-05-19T19:53:37.754Z,65.51
2019-05-19T19:56:06.295Z,65.67
2019-05-19T19:58:34.732Z,66.21
2019-05-19T20:01:03.168Z,66.26
2019-05-19T20:03:32.184Z,66.61
2019-05-19T20:06:00.606Z,66.96
2019-05-19T20:08:29.076Z,67.28
2019-05-19T20:10:57.551Z,66.61
2019-05-19T20:13:25.936Z,67.29
2019-05-19T20:15:54.670Z,67.34
2019-05-19T20:18:23.192Z,68.14
2019-05-19T20:20:51.589Z,68.45
2019-05-19T20:23:20.075Z,69.06
2019-05-19T20:25:48.585Z,69.12
2019-05-19T20:28:17.041Z,68.92
2019-05-19T20:30:45.538Z,69.62
2019-05-19T20:33:14.091Z,69.64
2019-05-19T20:35:42.817Z,70.02
2019-05-19T20:38:11.436Z,70.20
2019-05-19T20:40:39.865Z,70.26
2019-05-19T20:43:08.327Z,70.44
2019-05-19T20:45:36.750Z,70.62
2019-05-19T20:48:05.248Z,70.62
2019-05-19T20:50:33.749Z,70.49
2019-05-19T20:53:02.245Z,70.79
2019-05-19T20:55:30.666Z,70.88
2019-05-19T20:57:59.162Z,71.02
2019-05-19T21:00:28.024Z,71.07
2019-05-19T21:02:56.460Z,71.09
2019-05-19T21:05:24.897Z,71.36
2019-05-19T21:07:53.358Z,71.30
2019-05-19T21:10:21.812Z,71.72
2019-05-19T21:12:50.244Z,71.93
2019-05-19T21:15:18.682Z,71.92
2019-05-19T21:17:47.108Z,71.79
2019-05-19T21:20:15.669Z,72.12
2019-05-19T21:22:44.100Z,72.06
2019-05-19T21:25:12.612Z,72.07
2019-05-19T21:27:41.072Z,71.81
2019-05-19T21:30:09.960Z,72.19
2019-05-19T21:32:38.403Z,72.12
2019-05-19T21:35:07.589Z,72.40
2019-05-19T21:37:36.021Z,72.61
2019-05-19T21:40:07.074Z,72.78
2019-05-19T21:42:35.526Z,72.87
2019-05-19T21:45:05.315Z,72.71
2019-05-19T21:47:33.732Z,72.97
2019-05-19T21:50:02.523Z,73.03
2019-05-19T21:52:31.150Z,72.81
2019-05-19T21:54:59.921Z,72.93
2019-05-19T21:57:28.368Z,73.39
2019-05-19T21:59:56.790Z,73.20
2019-05-19T22:02:25.294Z,72.92
2019-05-19T22:04:53.777Z,73.17
2019-05-19T22:07:26.778Z,73.18
2019-05-19T22:09:55.221Z,72.86
2019-05-19T22:12:23.719Z,73.32
2019-05-19T22:14:52.143Z,73.48
2019-05-19T22:17:20.601Z,73.65
2019-05-19T22:19:49.034Z,73.17
2019-05-19T22:22:17.484Z,73.56
2019-05-19T22:24:45.919Z,73.73
2019-05-19T22:27:14.358Z,73.76
2019-05-19T22:29:42.796Z,73.72
2019-05-19T22:32:11.237Z,74.24
2019-05-19T22:34:39.669Z,74.46
2019-05-19T22:37:08.283Z,74.21
2019-05-19T22:39:36.801Z,74.67
2019-05-19T22:42:05.243Z,74.20
2019-05-19T22:44:33.689Z,74.80
2019-05-19T22:47:02.153Z,74.54
2019-05-19T22:49:30.557Z,74.83
2019-05-19T22:51:58.986Z,74.80
2019-05-19T22:54:27.429Z,75.05
2019-05-19T22:56:55.854Z,74.81
2019-05-19T22:59:24.298Z,74.03
2019-05-19T23:01:52.747Z,75.30
2019-05-19T23:04:21.175Z,75.00
2019-05-19T23:06:49.626Z,75.36
2019-05-19T23:09:18.064Z,74.71
2019-05-19T23:11:46.498Z,75.59
2019-05-19T23:14:14.949Z,75.68
2019-05-19T23:16:43.380Z,76.27
2019-05-19T23:19:11.823Z,76.54
2019-05-19T23:21:40.267Z,76.42
2019-05-19T23:24:08.722Z,76.38
2019-05-19T23:26:37.154Z,76.65
2019-05-19T23:29:05.610Z,77.42
2019-05-19T23:31:34.112Z,77.37
2019-05-19T23:34:02.535Z,77.19
2019-05-19T23:36:30.989Z,77.47
2019-05-19T23:38:59.442Z,77.68
2019-05-19T23:41:27.880Z,77.68
2019-05-19T23:43:56.314Z,77.82
2019-05-19T23:46:24.745Z,77.58
2019-05-19T23:48:53.213Z,77.61
2019-05-19T23:51:21.647Z,76.92
2019-05-19T23:53:50.086Z,77.36
2019-05-19T23:56:18.529Z,77.42
2019-05-19T23:58:46.948Z,77.26
